NCAR-RAP Real-Time Weather Data

Output produced by METARs form (21 July 2019  12:49 UTC)
found at http://weather.rap.ucar.edu/surface/
 
 
 
 
KAAT 211155Z AUTO 00000KT 10SM CLR 10/06 A3007 RMK AO2 SLP139 T01000061 10206 20100 53007
 
KACV 211153Z AUTO 16004KT 10SM OVC006 14/12 A2996 RMK AO2 SLP150 T01390122 10144 20133 55003
 
KAJO 211156Z AUTO 26006KT 10SM CLR 16/14 A2991 RMK AO2 SLP122 6//// 7//// T01610144 10200 20144 55006
 
KAPC 211154Z AUTO 21004KT 10SM OVC007 13/12 A2991 RMK AO2 SLP118 T01330122 10139 20111 53001
 
 
KAUN 211235Z AUTO 00000KT 10SM CLR 19/13 A2992 RMK A01
 
KAVX 211151Z AUTO A2994 RMK AO2 SLPNO 6//// 7//// 55001 PWINO PNO $
 
KBAB 211158Z AUTO 20003KT 10SM CLR 17/14 A2984 RMK AO2 SLP107 T01670138 10220 20164 53004 $
 
KBAN 211152Z AUTO 00000KT 10SM CLR 12/06 A3018 RMK AO2 SLP097 T01220061 10206 20122 52001 $
 
KBFL 211154Z AUTO 33005KT 10SM CLR 23/14 A2986 RMK AO2 SLP105 T02280139 10272 20222 51003
 
KBIH 211156Z AUTO 00000KT 10SM CLR 17/06 A2999 RMK AO2 SLP100 T01670056 10283 20167 53007
 
KBLH 211152Z AUTO 24005KT 10SM CLR 29/17 A2977 RMK AO2 SLP074 T02890167 10356 20283 51004
 
KBLU 211152Z AUTO 00000KT 10SM CLR 18/11 A3011 RMK AO2 SLP101 T01780106 10194 20172 57004
 
 
 
KBUR 211153Z 00000KT 10SM CLR 16/14 A2991 RMK AO2 SLP116 T01610144 10189 20161 55004 $
 
KBYS 211158Z AUTO VRB05KT 10SM CLR 25/07 A2991 RMK AO2 SLPNO WND DATA ESTMD T02530071 10286 20242 53006
 
KCCR 211153Z AUTO VRB04KT 10SM CLR 15/11 A2989 RMK AO2 SLP106 T01500106 10172 20144 55002
 
KCEC 211156Z AUTO 00000KT 9SM OVC006 12/12 A2999 RMK AO2 SLP155 T01220117 10133 20117 53005
 
KCIC 211235Z AUTO 00000KT 10SM CLR 21/13 A2988 RMK AO1
 
KCMA 211155Z AUTO 00000KT 10SM OVC008 17/14 A2990 RMK AO2 SLP134 T01720139 10183 20161 58007
 
KCNO 211153Z AUTO 26003KT 10SM CLR 16/15 A2992 RMK AO2 SLP124 T01610150 10206 20156 55006 $
 
KCQT 211152Z AUTO 00000KT 10SM OVC010 18/15 A2991 RMK AO2 SLP125 T01830150 10194 20178 55004
 
KCRQ 211153Z AUTO VRB03KT 8SM OVC010 20/16 A2990 RMK AO2 SLP122 T02000161 10206 20200 55001
 
KCVH 211240Z AUTO 00000KT 10SM OVC005 14/13 A2994 RMK A01
 
 
KCZZ 211152Z AUTO 05005KT 12/07 A2993 RMK AO1 SLP103 T01220067 10172 20117 55005
 
 
KDVO 211235Z AUTO 36005KT 10SM OVC005 13/12 A2992 RMK AO2
 
 
KEDU 211235Z AUTO 00000KT 10SM CLR 14/12 A2986 RMK AO1
 
KEDW 211158Z AUTO 16004KT 10SM CLR 19/05 A2990 RMK AO2 SLP100 T01870048 10239 20187 53001
 
KEED 211156Z AUTO 00000KT 10SM CLR 31/03 A2979 RMK AO2 SLP047 T03110033 10361 20306 53004 $
 
 
 
KF70 211235Z AUTO 00000KT 10SM CLR 16/11 A2993 RMK AO1
 
KFAT 211153Z 32005KT 10SM CLR 22/13 A2985 RMK AO2 SLP103 T02170128 10272 20217 53001
 
KFCH 211235Z AUTO 32005KT 10SM 19/14 A2986 RMK A01
 
KFOT 211230Z AUTO 00000KT 10SM OVC008 12/12 A2997 RMK AO1
 
KFUL 211153Z AUTO 29006KT 10SM CLR 18/14 A2990 RMK AO2 SLP124 T01780144 10194 20178 55003
 
KGOO 211235Z AUTO 00000KT 10SM CLR 20/11 A2999 RMK A01
 
KGXA 211158Z AUTO 15004KT 10SM CLR 16/05 A2994 RMK AO2 SLP107 WND DATA ESTMD T01610047 10212 20155 55003
 
KHAF 211235Z AUTO 17007KT 5SM BR OVC004 13/12 A2993 RMK AO2
 
 
 
KHHR 211153Z AUTO 24004KT 10SM OVC011 18/14 A2992 RMK AO2 SLP129 T01780144 10189 20178 55004 $
 
KHJO 211153Z AUTO 33006KT 10SM CLR 21/13 A2985 RMK AO2 SLP108 T02060133 10272 20206 53000
 
KHWD 211154Z AUTO 00000KT 10SM OVC011 16/13 A2989 RMK AO2 SLP132 T01610133 10161 20150 57005
 
KIPL 211153Z AUTO 13004KT 10SM CLR 27/22 A2973 RMK AO2 SLP069 T02720217 10322 20272 51004
 
 
KIZA 211235Z AUTO 00000KT 2 1/2SM BR 12/12 A2993 RMK AO2
 
KL18 211235Z AUTO 00000KT 7SM OVC003 16/16 A2992 RMK AO2
 
KL35 211235Z AUTO 00000KT 10SM CLR 08/00 A3021 RMK AO2
 
KLAX 211153Z 24006KT 10SM BKN010 17/15 A2991 RMK AO2 SLP126 T01720150 10183 20172 55004 $
 
KLGB 211153Z AUTO 30006KT 10SM CLR 18/14 A2991 RMK AO2 SLP127 T01830144 10200 20183 55004
 
KLHM 211235Z AUTO 14004KT 10SM CLR 17/11 A2986 RMK AO1
 
 
KLPC 211156Z AUTO 00000KT 10SM OVC008 14/13 A2993 RMK AO2 SLP136 T01440128 10150 20144 55001
 
KLVK 211153Z AUTO 00000KT 7SM CLR 14/12 A2989 RMK AO2 SLP117 T01390122 10167 20133 56003
 
KMAE 211153Z AUTO 00000KT 10SM CLR 17/14 A2985 RMK AO2 SLP106 T01670139 10239 20167 53000
 
KMCC 211240Z AUTO 15006KT 10SM CLR 16/11 A2988 RMK AO2
 
KMCE 211153Z AUTO 29003KT 10SM CLR 18/12 A2984 RMK AO2 SLP103 T01780122 10244 20172 55002
 
KMER 211215Z AUTO 30004KT 10SM CLR 17/13 A2986 RMK AO1
 
KMHR 211245Z 17006KT 10SM SKC 16/12 A2986
 
KMHS 211156Z AUTO 00000KT 10SM CLR 10/07 A3002 RMK AO2 SLP156 T01000072 10183 20100 52003
 
KMHV 211220Z AUTO 24006KT 10SM CLR 21/09 A2994 RMK A01
 
KMMH 211235Z AUTO 00000KT 10SM CLR 11/04 A3023 RMK AO2 T01050038
 
KMOD 211153Z AUTO 33004KT 10SM CLR 19/09 A2984 RMK AO2 SLP105 T01890094 10233 20183 55002
 
KMRY 211154Z AUTO 32003KT 5SM BR OVC003 14/12 A2993 RMK AO2 SLP147 T01440122 10161 20144 55003
 
 
KMYF 211153Z AUTO 36005KT 10SM OVC011 18/16 A2991 RMK AO2 SLP124 T01830156 10189 20183 55004
 
KMYV 211153Z AUTO 17006KT 10SM CLR 16/13 A2986 RMK AO2 SLP113 T01610128 10222 20161 53004
 
KNFG 211155Z AUTO 00000KT OVC009 14/13 A2991 RMK AO2 SLP126 T01390133 10172 20139 53001 $
 
 
KNID 211156Z AUTO A2988 RMK AO2 SLPNO 53006 PWINO $
 
KNJK 211156Z AUTO 00000KT 10SM CLR 24/18 A2976 RMK AO2 SLP091 T02390183 10322 20239 53006 $
 
KNKX 211155Z 32005KT 10SM OVC010 21/16 A2990 RMK AO2 SLP120 T02060161 10206 20194 55005
 
KNLC 211156Z AUTO 30007KT 10SM CLR 18/12 A2985 RMK AO2 SLP108 T01830122 10256 20183 53001
 
KNRS 211156Z AUTO 10SM OVC014 A2990 RMK AO2 SLP126 57007 $
 
KNSI 211245Z AUTO 29007KT 3SM BR OVC002 A2993 RMK AO2 $
 
KNTD 211157Z AUTO 32003KT 10SM OVC009 17/16 A2991 RMK AO2 SLP129 T01720156 10172 20161 58007 VISNO N $
 
KNUC 211156Z AUTO OVC012 16/ A2993 RMK AO2 SLP133 T0161 10167 20156 55006
 
KNUQ 211213Z 11003KT 10SM BKN014 16/13 A2991 RMK AO2 T01610128 $
 
KNXF 211156Z AUTO 05003KT 9SM 17/16 A2991 RMK AO2 SLP211 T01720156 10178 20156 55001 $
 
KNXP 211156Z AUTO 31009KT 10SM CLR 24/05 RMK AO2 SLPNO T02440050 10306 20244 $
 
KNZY 211152Z AUTO 30005KT 10SM OVC014 19/16 A2990 RMK AO2 SLP123 T01940156 10200 20194 55004
 
 
KO22 211235Z AUTO 00000KT 10SM CLR 16/13 A2994 RMK A01
 
KO54 211235Z AUTO 00000KT 10SM CLR 13/08 A2999 RMK AO1
 
 
KO69 211235Z AUTO 28006KT 6SM BR OVC003 12/12 A2992 RMK A01
 
KO86 211230Z AUTO 28004KT 10SM 15/10 A2999 RMK AO1
 
 
 
KOAK 211153Z 32004KT 10SM OVC010 16/13 A2991 RMK AO2 SLP127 T01610128 10167 20150 56005 $
 
KOKB 211152Z AUTO 00000KT 6SM BR OVC011 17/14 A2990 RMK AO2 SLP124 T01670144 10183 20144 53000
 
KONT 211153Z 24003KT 10SM CLR 19/16 A2991 RMK AO2 SLP110 T01940161 10228 20194 56006
 
KOVE 211153Z AUTO 00000KT 10SM CLR 19/14 A2986 RMK AO2 SLP113 T01940139 10256 20194 53002 $
 
KOXR 211151Z AUTO 34005KT 10SM OVC008 17/14 A2990 RMK AO2 SLP124 T01670139 10172 20167 58007
 
 
KPMD 211153Z AUTO 17006KT 10SM CLR 19/05 A2994 RMK AO2 SLP109 T01940050 10250 20178 55001
 
 
KPRB 211153Z AUTO 10SM CLR 13/12 A2992 RMK AO2 SLP126 T01280117 10167 20128 55000
 
KPSP 211153Z AUTO 00000KT 10SM CLR 27/12 A2978 RMK AO2 SLP079 T02720117 10322 20261 55000
 
KPTV 211156Z AUTO 16004KT 10SM 19/14 A2987 RMK AO2 SLP119 T01890144 10267 20189 53002 $
 
KPVF 211235Z AUTO 00000KT 10SM CLR 22/12 A2998 RMK AO1
 
KRAL 211153Z AUTO 00000KT 10SM CLR 18/14 A2990 RMK AO2 SLP110 T01780139 10211 20178 56008
 
KRBL 211154Z AUTO 35003KT 10SM CLR 19/14 A2987 RMK AO2 SLP111 T01890144 10250 20183 53003
 
KRDD 211153Z AUTO 00000KT 10SM CLR 20/14 A2987 RMK AO2 SLP107 T02000144 10267 20200 53004
 
 
 
KRIV 211158Z AUTO 00000KT 9SM CLR 15/15 A2991 RMK AO2 SLP116 T01450145 10191 20142 57008
 
KRNM 211153Z AUTO 00000KT 1/4SM FG VV002 15/14 A2992 RMK AO2 SLP116 T01500139 10167 20128 55004
 
KSAC 211153Z AUTO 18004KT 10SM CLR 15/12 A2985 RMK AO2 SLP109 T01500122 10183 20150 53001
 
KSAN 211151Z 33003KT 10SM OVC014 20/17 A2992 RMK AO2 SLP130 T02000167 10200 20200 55003 $
 
KSBA 211153Z AUTO 00000KT 10SM OVC006 16/14 A2991 RMK AO2 SLP126 T01560139 10161 20139 58006
 
KSBD 211240Z AUTO 00000KT 10SM CLR 19/13 A2993 RMK AO2 T01900130
 
KSBP 211156Z AUTO 25003KT 10SM OVC009 15/13 A2993 RMK AO2 SLP133 T01500128 10150 20139 55001
 
KSCK 211155Z AUTO 01004KT 10SM CLR 17/11 A2985 RMK AO2 SLP109 T01670111 10222 20167 55001
 
KSDB 211153Z AUTO 24008KT 10SM CLR 17/09 A3006 RMK AO2 SLP124 T01720089 10200 20167 56006 $
 
KSDM 211153Z AUTO 00000KT 10SM OVC009 17/16 A2990 RMK AO2 SLP122 T01720156 10172 20167 58001
 
KSEE 211235Z AUTO 36003KT 10SM OVC009 18/16 A2991 RMK AO2
 
KSFO 211156Z 27005KT 10SM FEW010 SCT013 15/12 A2990 RMK AO2 SLP125 T01500117 10156 20144 55003
 
KSIY 211153Z AUTO 05003KT 10SM CLR 15/05 A2999 RMK AO2 SLP139 T01500050 10239 20144 53004
 
KSJC 211233Z 16008KT 10SM FEW005 FEW016 SCT160 15/15 A2991 RMK AO2 T01500150 $
 
KSLI 211158Z AUTO 30004KT 10SM CLR 16/14 A2991 RMK AO2 SLP131 T01640142 10178 20163 55002
 
KSMF 211153Z 15006KT 10SM CLR 16/12 A2984 RMK AO2 SLP105 T01560122 10194 20156 53002
 
KSMO 211151Z AUTO 18003KT 10SM OVC009 18/16 A2991 RMK AO2 SLP127 T01780161 10183 20178 55006
 
KSMX 211151Z AUTO 00000KT 8SM OVC007 15/14 A2993 RMK AO2 SLP136 T01500139 10156 20144 55003 $
 
KSNA 211153Z AUTO 00000KT 10SM CLR 19/14 A2990 RMK AO2 SLP125 T01890144 10200 20189 55002
 
KSNS 211153Z 00000KT 10SM OVC006 14/12 A2993 RMK AO2 SLP143 T01440122 10161 20139 55004
 
 
KSTS 211238Z AUTO 00000KT 2 1/2SM BR OVC003 11/11 A2992 RMK AO2 T01110111
 
KSUU 211158Z AUTO 24018G23KT 10SM CLR 14/12 A2985 RMK AO2 PK WND 25026/45 SLP115 T01370116 10155 20137 53003 $
 
KSVE 211235Z AUTO 31004KT 5SM HZ CLR 16/08 A3004 RMK AO2
 
 
KTRK 211235Z AUTO 00000KT 10SM CLR 10/09 A3016 RMK AO2
 
KTRM 211152Z AUTO 00000KT 10SM CLR 24/13 A2973 RMK AO2 SLP070 T02390128 10333 20233 53006
 
KTSP 211235Z AUTO 00000KT 10SM CLR 14/09 A3005 RMK AO2
 
KTVL 211153Z AUTO 00000KT 10SM CLR 11/09 A3016 RMK AO2 SLP150 T01060094 10161 20106 55001
 
KUKI 211156Z AUTO 16003KT 10SM CLR 15/12 A2989 RMK AO2 SLP114 T01500117 10211 20150 53001
 
KVBG 211158Z AUTO 00000KT 9SM OVC004 13/13 A2993 RMK AO2 SLP137 T01330126 10143 20133 55002 $
 
KVCB 211153Z AUTO 24004KT 10SM CLR 15/13 A2985 RMK AO2 SLP108 T01500128 10211 20150 53004
 
 
KVIS 211156Z AUTO 31004KT 10SM CLR 20/16 A2986 RMK AO2 SLP113 T02000161 10261 20200 53002
 
KVNY 211151Z 18003KT 10SM CLR 16/14 A2991 RMK AO2 SLP119 T01610139 10206 20161 55005
 
 
KWJF 211156Z AUTO 26015KT 10SM CLR 23/06 A2992 RMK AO2 SLP111 T02280056 10250 20217 55001
 
KWVI 211203Z AUTO 26004KT 5SM BR OVC004 13/12 A2993 RMK AO2 T01330122